createdAt,value
2022-11-27T00:01:49.000Z,16.1
2022-11-27T00:05:22.000Z,15.9
2022-11-27T00:08:54.000Z,15.8
2022-11-27T00:12:27.000Z,17.1
2022-11-27T00:16:00.000Z,17.7
2022-11-27T00:19:32.000Z,16.1
2022-11-27T00:22:24.000Z,14.9
2022-11-27T00:25:57.000Z,14.4
2022-11-27T00:29:29.000Z,13.9
2022-11-27T00:33:02.000Z,14.5
2022-11-27T00:36:35.000Z,15
2022-11-27T00:40:13.000Z,14
2022-11-27T00:43:46.000Z,12.8
2022-11-27T00:47:18.000Z,12.6
2022-11-27T00:50:51.000Z,12.1
2022-11-27T00:54:24.000Z,12.3
2022-11-27T00:57:56.000Z,12.3
2022-11-27T01:00:48.000Z,12.8
2022-11-27T01:04:20.000Z,14.1
2022-11-27T01:07:53.000Z,12.5
2022-11-27T01:11:25.000Z,11.8
2022-11-27T01:14:58.000Z,11.9
2022-11-27T01:18:31.000Z,11.5
2022-11-27T01:22:03.000Z,12.4
2022-11-27T01:25:36.000Z,12.5
2022-11-27T01:29:09.000Z,12.6
2022-11-27T01:32:41.000Z,11.9
2022-11-27T01:36:14.000Z,12.2
2022-11-27T01:39:05.000Z,13.1
2022-11-27T01:42:38.000Z,12.6
2022-11-27T01:46:10.000Z,12.1
2022-11-27T01:49:43.000Z,12.1
2022-11-27T01:53:16.000Z,13.3
2022-11-27T01:56:48.000Z,14.6
2022-11-27T02:00:21.000Z,13.4
2022-11-27T02:03:54.000Z,16.9
2022-11-27T02:07:26.000Z,15.5
2022-11-27T02:10:59.000Z,15.1
2022-11-27T02:14:32.000Z,15
2022-11-27T02:17:24.000Z,16.1
2022-11-27T02:20:56.000Z,14.4
2022-11-27T02:24:29.000Z,16.9
2022-11-27T02:28:01.000Z,16.7
2022-11-27T02:31:34.000Z,16.7
2022-11-27T02:35:07.000Z,15.7
2022-11-27T02:38:39.000Z,16.6
2022-11-27T02:42:12.000Z,17.5
2022-11-27T02:45:44.000Z,17.7
2022-11-27T02:49:17.000Z,15.6
2022-11-27T02:52:50.000Z,17.8
2022-11-27T02:55:41.000Z,16.2
2022-11-27T02:59:13.000Z,16.8
2022-11-27T03:02:46.000Z,19.1
2022-11-27T03:06:18.000Z,17.5
2022-11-27T03:09:51.000Z,18.3
2022-11-27T03:13:24.000Z,15.3
2022-11-27T03:16:56.000Z,20
2022-11-27T03:20:29.000Z,18.8
2022-11-27T03:24:02.000Z,16
2022-11-27T03:27:34.000Z,15.5
2022-11-27T03:31:07.000Z,17.8
2022-11-27T03:33:59.000Z,16.6
2022-11-27T03:37:31.000Z,18
2022-11-27T03:41:04.000Z,18.1
2022-11-27T03:44:36.000Z,17.9
2022-11-27T03:48:09.000Z,15.9
2022-11-27T03:51:42.000Z,15.5
2022-11-27T03:55:14.000Z,20.1
2022-11-27T03:58:47.000Z,16.5
2022-11-27T04:02:19.000Z,19.9
2022-11-27T04:05:52.000Z,20.4
2022-11-27T04:09:25.000Z,16.8
2022-11-27T04:12:16.000Z,16.3
2022-11-27T04:15:49.000Z,19.4
2022-11-27T04:19:21.000Z,17.2
2022-11-27T04:22:54.000Z,19.5
2022-11-27T04:26:26.000Z,17.7
2022-11-27T04:29:59.000Z,17.3
2022-11-27T04:33:32.000Z,19
2022-11-27T04:37:04.000Z,18.8
2022-11-27T04:40:37.000Z,17.7
2022-11-27T04:44:10.000Z,17.9
2022-11-27T04:47:42.000Z,17
2022-11-27T04:50:33.000Z,17.7
2022-11-27T04:54:06.000Z,18.5
2022-11-27T04:57:39.000Z,19
2022-11-27T05:01:11.000Z,18.6
2022-11-27T05:04:44.000Z,17.5
2022-11-27T05:08:17.000Z,17.5
2022-11-27T05:11:49.000Z,17.5
2022-11-27T05:15:22.000Z,18.9
2022-11-27T05:18:55.000Z,17.9
2022-11-27T05:22:27.000Z,15.5
2022-11-27T05:26:00.000Z,17.2
2022-11-27T05:28:51.000Z,18.1
2022-11-27T05:32:24.000Z,17.2
2022-11-27T05:35:56.000Z,16.4
2022-11-27T05:39:29.000Z,16.8
2022-11-27T05:43:01.000Z,16.4
2022-11-27T05:46:34.000Z,16.8
2022-11-27T05:50:06.000Z,17.5
2022-11-27T05:53:39.000Z,17.9
2022-11-27T05:57:12.000Z,16.2
2022-11-27T06:00:44.000Z,15.9
2022-11-27T06:04:25.000Z,17.8
2022-11-27T06:07:16.000Z,19
2022-11-27T06:10:49.000Z,19.2
2022-11-27T06:14:21.000Z,18.7
2022-11-27T06:17:54.000Z,16.7
2022-11-27T06:21:26.000Z,16.9
2022-11-27T06:24:59.000Z,16.8
2022-11-27T06:28:32.000Z,16.4
2022-11-27T06:32:04.000Z,16.7
2022-11-27T06:35:37.000Z,17
2022-11-27T06:39:12.000Z,15.9
2022-11-27T06:42:44.000Z,15.8
2022-11-27T06:45:36.000Z,16.1
2022-11-27T06:49:08.000Z,16.2
2022-11-27T06:52:41.000Z,16.9
2022-11-27T06:56:14.000Z,15
2022-11-27T06:59:46.000Z,15.3
2022-11-27T07:03:19.000Z,16.4
2022-11-27T07:06:52.000Z,15.3
2022-11-27T07:10:24.000Z,15.4
2022-11-27T07:13:57.000Z,17.1
2022-11-27T07:17:30.000Z,15.5
2022-11-27T07:21:03.000Z,15.4
2022-11-27T07:23:54.000Z,15.4
2022-11-27T07:27:27.000Z,15.2
2022-11-27T07:30:59.000Z,14.7
2022-11-27T07:34:32.000Z,13.6
2022-11-27T07:38:05.000Z,14.9
2022-11-27T07:42:01.000Z,14.9
2022-11-27T07:46:03.000Z,15.8
2022-11-27T07:49:35.000Z,14.6
2022-11-27T07:53:08.000Z,14.7
2022-11-27T07:56:41.000Z,14.4
2022-11-27T08:00:14.000Z,14.6
2022-11-27T08:03:05.000Z,14.5
2022-11-27T08:06:38.000Z,12.4
2022-11-27T08:10:11.000Z,14.3
2022-11-27T08:13:44.000Z,13.4
2022-11-27T08:17:16.000Z,14.2
2022-11-27T08:20:49.000Z,14.8
2022-11-27T08:24:21.000Z,15.1
2022-11-27T08:27:54.000Z,14.7
2022-11-27T08:31:32.000Z,13.7
2022-11-27T08:35:05.000Z,13.6
2022-11-27T08:38:38.000Z,14.9
2022-11-27T08:41:29.000Z,14.7
2022-11-27T08:45:01.000Z,12.2
2022-11-27T08:48:34.000Z,14.6
2022-11-27T08:52:07.000Z,13.6
2022-11-27T08:55:39.000Z,13.2
2022-11-27T08:59:12.000Z,13
2022-11-27T09:02:44.000Z,13.5
2022-11-27T09:06:17.000Z,13.8
2022-11-27T09:09:50.000Z,13.6
2022-11-27T09:13:22.000Z,12.9
2022-11-27T09:16:55.000Z,12.8
2022-11-27T09:19:46.000Z,13.3
2022-11-27T09:23:19.000Z,12.7
2022-11-27T09:26:52.000Z,12.9
2022-11-27T09:30:30.000Z,12.8
2022-11-27T09:34:03.000Z,12.4
2022-11-27T09:37:36.000Z,12.8
2022-11-27T09:41:08.000Z,12.9
2022-11-27T09:44:41.000Z,11
2022-11-27T09:48:14.000Z,12.4
2022-11-27T09:51:46.000Z,10.9
2022-11-27T09:55:19.000Z,10.6
2022-11-27T09:58:10.000Z,11.2
2022-11-27T10:01:42.000Z,11.2
2022-11-27T10:05:16.000Z,10.6
2022-11-27T10:08:49.000Z,9.6
2022-11-27T10:12:21.000Z,10.1
2022-11-27T10:15:54.000Z,10
2022-11-27T10:19:27.000Z,10.3
2022-11-27T10:22:59.000Z,9.4
2022-11-27T10:26:32.000Z,9.1
2022-11-27T10:30:05.000Z,9.1
2022-11-27T10:33:38.000Z,8.7
2022-11-27T10:36:29.000Z,9
2022-11-27T10:40:05.000Z,8.5
2022-11-27T10:43:48.000Z,8.9
2022-11-27T10:47:21.000Z,8.2
2022-11-27T10:50:58.000Z,8.2
2022-11-27T10:54:31.000Z,7.3
2022-11-27T10:58:04.000Z,7.5
2022-11-27T11:01:37.000Z,7.9
2022-11-27T11:05:10.000Z,6.8
2022-11-27T11:09:10.000Z,8
2022-11-27T11:12:43.000Z,7.4
2022-11-27T11:15:34.000Z,6.9
2022-11-27T11:19:07.000Z,7.4
2022-11-27T11:22:39.000Z,7.6
2022-11-27T11:26:12.000Z,8.2
2022-11-27T11:29:45.000Z,7.3
2022-11-27T11:33:17.000Z,7.2
2022-11-27T11:36:56.000Z,7.3
2022-11-27T11:40:28.000Z,6
2022-11-27T11:44:01.000Z,6.2
2022-11-27T11:47:34.000Z,8.1
2022-11-27T11:51:06.000Z,6.9
2022-11-27T11:53:58.000Z,6.9
2022-11-27T11:57:30.000Z,6.2
2022-11-27T12:01:04.000Z,6.5
2022-11-27T12:04:52.000Z,5.9
2022-11-27T12:08:25.000Z,5.8
2022-11-27T12:11:57.000Z,5.5
2022-11-27T12:15:32.000Z,6.7
2022-11-27T12:19:04.000Z,6.7
2022-11-27T12:22:37.000Z,6.2
2022-11-27T12:26:09.000Z,6
2022-11-27T12:29:42.000Z,6
2022-11-27T12:32:33.000Z,6.2
2022-11-27T12:36:06.000Z,5.9
2022-11-27T12:39:38.000Z,6.5
2022-11-27T12:43:11.000Z,5.8
2022-11-27T12:46:44.000Z,6.5
2022-11-27T12:50:16.000Z,6.2
2022-11-27T12:53:49.000Z,5.8
2022-11-27T12:57:21.000Z,6
2022-11-27T13:00:54.000Z,6.3
2022-11-27T13:04:27.000Z,5.7
2022-11-27T13:07:59.000Z,6.2
2022-11-27T13:10:51.000Z,5.6
2022-11-27T13:14:23.000Z,5.6
2022-11-27T13:17:56.000Z,5.6
2022-11-27T13:21:29.000Z,5
2022-11-27T13:25:01.000Z,5.1
2022-11-27T13:28:34.000Z,5.1
2022-11-27T13:32:06.000Z,5.6
2022-11-27T13:35:39.000Z,5.5
2022-11-27T13:39:12.000Z,5.1
2022-11-27T13:42:44.000Z,5.1
2022-11-27T13:46:17.000Z,5.3
2022-11-27T13:49:08.000Z,5.1
2022-11-27T13:52:41.000Z,5.5
2022-11-27T13:56:14.000Z,5.4
2022-11-27T13:59:46.000Z,5.1
2022-11-27T14:03:19.000Z,5.7
2022-11-27T14:06:55.000Z,5.8
2022-11-27T14:10:28.000Z,6.3
2022-11-27T14:14:00.000Z,6.1
2022-11-27T14:17:33.000Z,6.5
2022-11-27T14:21:06.000Z,6.4
2022-11-27T14:25:08.000Z,7.6
2022-11-27T14:28:00.000Z,7.3
2022-11-27T14:31:32.000Z,7.4
2022-11-27T14:35:05.000Z,7.4
2022-11-27T14:38:38.000Z,11.8
2022-11-27T14:42:10.000Z,8.9
2022-11-27T14:45:43.000Z,9.4
2022-11-27T14:49:15.000Z,10.4
2022-11-27T14:52:48.000Z,9.6
2022-11-27T14:56:20.000Z,8.5
2022-11-27T14:59:53.000Z,8.9
2022-11-27T15:03:26.000Z,9.8
2022-11-27T15:06:17.000Z,10
2022-11-27T15:09:50.000Z,8.9
2022-11-27T15:13:54.000Z,9.3
2022-11-27T15:17:26.000Z,8.5
2022-11-27T15:20:59.000Z,10.2
2022-11-27T15:24:31.000Z,9.5
2022-11-27T15:28:12.000Z,9.2
2022-11-27T15:31:45.000Z,10.4
2022-11-27T15:35:18.000Z,9
2022-11-27T15:38:50.000Z,9.2
2022-11-27T15:42:23.000Z,8.8
2022-11-27T15:45:14.000Z,9.1
2022-11-27T15:48:47.000Z,10.3
2022-11-27T15:52:19.000Z,9.6
2022-11-27T15:55:52.000Z,8.9
2022-11-27T15:59:25.000Z,8.9
2022-11-27T16:02:57.000Z,9.6
2022-11-27T16:06:30.000Z,9
2022-11-27T16:10:03.000Z,10.4
2022-11-27T16:13:35.000Z,9.5
2022-11-27T16:17:08.000Z,10.3
2022-11-27T16:20:41.000Z,10.2
2022-11-27T16:23:32.000Z,11.1
2022-11-27T16:27:04.000Z,9.9
2022-11-27T16:30:37.000Z,10.8
2022-11-27T16:34:10.000Z,9.5
2022-11-27T16:37:42.000Z,9
2022-11-27T16:41:15.000Z,9.6
2022-11-27T16:44:48.000Z,8.7
2022-11-27T16:48:21.000Z,9.5
2022-11-27T16:51:53.000Z,9.8
2022-11-27T16:55:26.000Z,8.9
2022-11-27T16:58:59.000Z,11.6
2022-11-27T17:01:49.000Z,13.6
2022-11-27T17:05:22.000Z,27.3
2022-11-27T17:08:55.000Z,11.2
2022-11-27T17:12:27.000Z,11
2022-11-27T17:16:00.000Z,10.6
2022-11-27T17:19:38.000Z,11.9
2022-11-27T17:23:11.000Z,11.3
2022-11-27T17:26:44.000Z,9.7
2022-11-27T17:30:16.000Z,11.1
2022-11-27T17:33:49.000Z,11.2
2022-11-27T17:37:22.000Z,9.6
2022-11-27T17:40:13.000Z,9.8
2022-11-27T17:43:45.000Z,12.7
2022-11-27T17:47:18.000Z,11.4
2022-11-27T17:50:51.000Z,12.1
2022-11-27T17:54:23.000Z,10.4
2022-11-27T17:57:56.000Z,10.3
2022-11-27T18:01:29.000Z,11.5
2022-11-27T18:05:06.000Z,12.6
2022-11-27T18:08:38.000Z,10.4
2022-11-27T18:12:11.000Z,10.6
2022-11-27T18:15:44.000Z,11.2
2022-11-27T18:18:35.000Z,12.3
2022-11-27T18:22:07.000Z,11.9
2022-11-27T18:26:19.000Z,10.9
2022-11-27T18:30:17.000Z,12.1
2022-11-27T18:33:50.000Z,11.7
2022-11-27T18:37:23.000Z,11.8
2022-11-27T18:40:55.000Z,10.7
2022-11-27T18:44:28.000Z,11.5
2022-11-27T18:48:09.000Z,11.8
2022-11-27T18:51:42.000Z,11.5
2022-11-27T18:55:15.000Z,11
2022-11-27T18:58:06.000Z,11.2
2022-11-27T19:01:39.000Z,12
2022-11-27T19:05:12.000Z,11.5
2022-11-27T19:08:45.000Z,11.3
2022-11-27T19:12:17.000Z,11.2
2022-11-27T19:15:50.000Z,10.5
2022-11-27T19:21:37.000Z,11.5
2022-11-27T19:25:09.000Z,11.4
2022-11-27T19:28:42.000Z,10.8
2022-11-27T19:32:14.000Z,11
2022-11-27T19:35:47.000Z,12.1
2022-11-27T19:38:32.000Z,11.4
2022-11-27T19:42:05.000Z,11.2
2022-11-27T19:45:37.000Z,12.7
2022-11-27T19:49:10.000Z,11.6
2022-11-27T19:52:43.000Z,10.9
2022-11-27T19:56:15.000Z,11.9
2022-11-27T19:59:48.000Z,12.1
2022-11-27T20:03:21.000Z,15.4
2022-11-27T20:06:54.000Z,11.7
2022-11-27T20:10:26.000Z,15.2
2022-11-27T20:13:59.000Z,12.3
2022-11-27T20:16:50.000Z,11.3
2022-11-27T20:20:23.000Z,11.3
2022-11-27T20:23:59.000Z,10.9
2022-11-27T20:27:32.000Z,10.7
2022-11-27T20:31:04.000Z,13.3
2022-11-27T20:34:37.000Z,12.4
2022-11-27T20:38:10.000Z,11.8
2022-11-27T20:41:42.000Z,12.4
2022-11-27T20:45:15.000Z,12.3
2022-11-27T20:48:47.000Z,13.3
2022-11-27T20:52:20.000Z,11.7
2022-11-27T20:55:11.000Z,12.8
2022-11-27T20:58:44.000Z,12.4
2022-11-27T21:02:16.000Z,11.8
2022-11-27T21:05:49.000Z,12
2022-11-27T21:09:22.000Z,11.3
2022-11-27T21:12:54.000Z,10.7
2022-11-27T21:16:27.000Z,12.2
2022-11-27T21:20:00.000Z,11.2
2022-11-27T21:23:32.000Z,12.3
2022-11-27T21:27:05.000Z,11.8
2022-11-27T21:30:38.000Z,12.7
2022-11-27T21:33:29.000Z,11.7
2022-11-27T21:37:01.000Z,11.5
2022-11-27T21:40:34.000Z,11.6
2022-11-27T21:44:07.000Z,11.2
2022-11-27T21:47:39.000Z,11
2022-11-27T21:51:12.000Z,11.6
2022-11-27T21:54:44.000Z,10.9
2022-11-27T21:58:17.000Z,10.6
2022-11-27T22:01:50.000Z,10.9
2022-11-27T22:05:23.000Z,12.1
2022-11-27T22:08:55.000Z,11
2022-11-27T22:11:47.000Z,10.8
2022-11-27T22:15:19.000Z,10.8
2022-11-27T22:18:52.000Z,10
2022-11-27T22:22:25.000Z,10.7
2022-11-27T22:25:57.000Z,11.4
2022-11-27T22:29:30.000Z,10.7
2022-11-27T22:33:02.000Z,10.5
2022-11-27T22:36:35.000Z,10.5
2022-11-27T22:40:08.000Z,10.7
2022-11-27T22:43:40.000Z,11
2022-11-27T22:47:13.000Z,10.9
2022-11-27T22:50:04.000Z,10.1
2022-11-27T22:53:37.000Z,10
2022-11-27T22:57:09.000Z,10.6
2022-11-27T23:00:42.000Z,10.5
2022-11-27T23:04:15.000Z,9.3
2022-11-27T23:07:47.000Z,10.9
2022-11-27T23:11:20.000Z,11
2022-11-27T23:14:53.000Z,11.8
2022-11-27T23:18:25.000Z,12.4
2022-11-27T23:21:58.000Z,11.6
2022-11-27T23:25:31.000Z,10.8
2022-11-27T23:28:22.000Z,12.8
2022-11-27T23:31:54.000Z,13.6
2022-11-27T23:35:27.000Z,12.9
2022-11-27T23:39:00.000Z,12.3
2022-11-27T23:42:32.000Z,12.7
2022-11-27T23:46:05.000Z,13.4
2022-11-27T23:49:38.000Z,13.7
2022-11-27T23:53:10.000Z,12.8
2022-11-27T23:56:43.000Z,13.9
